ADDS METAR Data INFO
IDs: Format: Raw Decoded Include TAF

Data at: 0101 UTC 22 Oct 2017

PAVL 220053Z AUTO 05007KT 10SM SCT100 M07/M11 A2946 RMK AO2 SLP976 T10671111 TSNO PNO $
PAVL 212353Z AUTO 07007KT 10SM CLR M07/M12 A2947 RMK AO2 SLP978 6//// T10721122 11072 21111 58001 TSNO PNO $
PAVL 212253Z AUTO 07007KT 10SM CLR M07/M12 A2947 RMK AO2 SLP980 T10721117 TSNO PNO $
PAVL 212153Z AUTO 06006KT 10SM CLR M08/M12 A2947 RMK AO2 SNB09E18 SLP981 T10831117 TSNO PNO $
PAVL 211953Z AUTO 02007KT 10SM BKN042 M11/M13 A2947 RMK AO2 SLP979 T11061128 TSNO PNO $
PAVL 211853Z AUTO 04008KT 10SM CLR M11/M13 A2946 RMK AO2 SLP977 T11061133 TSNO PNO $
PAVL 211753Z AUTO 05009KT 10SM CLR M10/M14 A2946 RMK AO2 SLP976 6//// T11001139 11100 21122 52006 TSNO PNO $
PAVL 211653Z AUTO 03010KT 10SM CLR M11/M14 A2945 RMK AO2 SLP974 T11061139 TSNO PNO $
PAVL 211553Z AUTO 05008KT 10SM CLR M11/M14 A2945 RMK AO2 SLP972 T11111144 TSNO PNO $
PAVL 211453Z AUTO 02009KT 10SM CLR M11/M14 A2944 RMK AO2 SLP970 6//// T11111144 53002 TSNO PNO $
PAVL 211353Z AUTO 05010KT 10SM CLR M12/M14 A2943 RMK AO2 SLP967 T11171144 TSNO PNO $
PAVL 211253Z AUTO 05007KT 10SM CLR M11/M13 A2943 RMK AO2 SLP967 T11061133 TSNO PNO $
PAVL 211153Z AUTO 04007KT 10SM CLR M11/M13 A2944 RMK AO2 SLP968 6//// 7//// T11061128 11072 21106 52004 TSNO PNO $
PAVL 211053Z AUTO 05007KT 10SM CLR M10/M12 A2943 RMK AO2 SLP966 T11001117 TSNO PNO $
PAVL 210953Z AUTO 05007KT 10SM CLR M10/M12 A2943 RMK AO2 SLP966 T11001122 TSNO PNO $
PAVL 210853Z AUTO 04006KT 10SM CLR M11/M12 A2942 RMK AO2 SLP964 6//// T11061122 410501117 51011 TSNO PNO $
PAVL 210753Z AUTO 07005KT 10SM CLR M09/M11 A2942 RMK AO2 SLP961 T10941111 TSNO PNO $
PAVL 210653Z AUTO 03006KT 10SM CLR M09/M11 A2940 RMK AO2 SLP957 T10891106 TSNO PNO $
PAVL 210453Z AUTO 04005KT 4SM -SN BR OVC044 M07/M09 A2939 RMK AO2 SLP951 T10721089 TSNO PNO $
PAVL 210406Z AUTO 07008KT 3SM -SN BR OVC034 M07/M09 A2938 RMK AO2 T10721094 TSNO PNO $
PAVL 210353Z AUTO 07008KT 2 1/2SM -SN BR OVC032 M07/M09 A2938 RMK AO2 SLP949 T10721094 TSNO PNO $
PAVL 210348Z AUTO 06009KT 3SM -SN BR OVC032 M07/M09 A2938 RMK AO2 TSNO PNO $
PAVL 210248Z AUTO 06012KT 2 1/2SM -SN OVC041 M07/M10 A2937 RMK AO2 SNB36 TSNO PNO $
PAVL 210053Z AUTO 03008KT 10SM FEW060 BKN110 M06/M10 A2935 RMK AO2 SLP940 T10611100 TSNO PNO $
PAVL 202353Z AUTO 06010KT 10SM FEW043 OVC090 M05/M11 A2935 RMK AO2 SLP938 6//// T10501106 11050 21100 51003 TSNO PNO $
PAVL 202253Z AUTO 02008KT 10SM FEW041 SCT055 M06/M11 A2935 RMK AO2 SLP938 T10561106 TSNO PNO $
PAVL 202153Z AUTO 04008KT 10SM BKN039 M07/M12 A2935 RMK AO2 SLP938 T10671117 TSNO PNO $
PAVL 202053Z AUTO 04008KT 10SM BKN045 OVC055 M07/M12 A2934 RMK AO2 SLP935 6//// T10721117 53004 TSNO PNO $
PAVL 201953Z AUTO 03010KT 9SM FEW042 BKN050 OVC060 M09/M12 A2933 RMK AO2 SNE11 SLP934 T10891122 TSNO PNO $
PAVL 201918Z AUTO 03005KT 9SM SCT034 BKN060 OVC085 M09/M11 A2933 RMK AO2 SNE11 T10891111 TSNO PNO $
PAVL 201907Z AUTO 03009KT 3SM -SN BR BKN026 OVC085 M09/M11 A2933 RMK AO2 T10891111 TSNO PNO $
PAVL 201902Z AUTO 03009KT 1 3/4SM -SN BR BKN026 M09/M11 A2933 RMK AO2 T10891111 TSNO PNO $
PAVL 201853Z AUTO 03010KT 1 1/4SM -SN BR OVC030 M09/M11 A2933 RMK AO2 SNB29 SLP931 T10891111 TSNO PNO $
PAVL 201837Z AUTO 04010KT 1 3/4SM -SN BKN040 BKN070 OVC085 M09/M12 A2932 RMK AO2 SNB29 T10891117 TSNO PNO $
PAVL 201753Z AUTO 02008KT 10SM BKN080 OVC095 M10/M13 A2933 RMK AO2 SLP931 6//// T11001128 11100 21117 51008 TSNO PNO $
PAVL 201653Z AUTO 02005KT 10SM BKN095 M10/M13 A2932 RMK AO2 SLP930 T11001128 TSNO PNO $
PAVL 201553Z AUTO 03006KT 10SM OVC100 M11/M13 A2931 RMK AO2 SLP926 T11061133 TSNO PNO $
PAVL 201453Z AUTO 02009KT 10SM CLR M11/M13 A2930 RMK AO2 SLP923 6//// T11061133 50000 TSNO PNO $
PAVL 201353Z AUTO 03010KT 10SM CLR M11/M13 A2930 RMK AO2 SLP924 T11111133 TSNO PNO $